createdAt,value
2023-04-23T00:00:13.530Z,96153.86
2023-04-23T00:03:10.673Z,96153.66
2023-04-23T00:05:39.958Z,96155.43
2023-04-23T00:08:10.390Z,96160.84
2023-04-23T00:10:38.906Z,96160.91
2023-04-23T00:13:07.732Z,96164.35
2023-04-23T00:15:36.757Z,96166.67
2023-04-23T00:18:05.125Z,96170.19
2023-04-23T00:20:35.131Z,96169.29
2023-04-23T00:23:03.418Z,96167.60
2023-04-23T00:25:31.901Z,96162.94
2023-04-23T00:28:00.364Z,96159.08
2023-04-23T00:30:28.747Z,96160.86
2023-04-23T00:32:57.162Z,96160.82
2023-04-23T00:35:25.519Z,96158.66
2023-04-23T00:37:53.887Z,96160.64
2023-04-23T00:40:23.784Z,96158.39
2023-04-23T00:42:53.917Z,96159.13
2023-04-23T00:45:22.402Z,96157.85
2023-04-23T00:47:51.361Z,96160.55
2023-04-23T00:50:20.966Z,96158.11
2023-04-23T00:52:49.253Z,96156.80
2023-04-23T00:55:21.336Z,96159.80
2023-04-23T00:57:50.854Z,96157.36
2023-04-23T01:00:20.892Z,96155.73
2023-04-23T01:02:50.818Z,96154.90
2023-04-23T01:05:22.185Z,96151.45
2023-04-23T01:07:51.060Z,96149.20
2023-04-23T01:10:19.581Z,96145.39
2023-04-23T01:12:49.211Z,96149.09
2023-04-23T01:15:17.760Z,96149.52
2023-04-23T01:17:46.677Z,96146.38
2023-04-23T01:20:15.200Z,96148.95
2023-04-23T01:22:43.531Z,96145.03
2023-04-23T01:25:12.126Z,96147.13
2023-04-23T01:27:41.234Z,96151.52
2023-04-23T01:30:10.047Z,96149.28
2023-04-23T01:32:39.573Z,96149.59
2023-04-23T01:35:08.397Z,96149.12
2023-04-23T01:37:38.936Z,96150.67
2023-04-23T01:40:08.983Z,96151.23
2023-04-23T01:42:38.408Z,96156.63
2023-04-23T01:45:08.279Z,96156.66
2023-04-23T01:47:36.883Z,96154.67
2023-04-23T01:50:05.986Z,96151.33
2023-04-23T01:52:34.361Z,96155.75
2023-04-23T01:55:02.736Z,96158.45
2023-04-23T01:57:31.100Z,96157.61
2023-04-23T02:00:11.607Z,96158.02
2023-04-23T02:02:44.667Z,96158.30
2023-04-23T02:05:16.942Z,96159.20
2023-04-23T02:07:46.933Z,96158.33
2023-04-23T02:10:16.383Z,96158.63
2023-04-23T02:12:45.570Z,96156.11
2023-04-23T02:15:16.010Z,96157.52
2023-04-23T02:17:44.363Z,96157.25
2023-04-23T02:20:13.535Z,96154.81
2023-04-23T02:22:42.752Z,96157.69
2023-04-23T02:25:11.139Z,96153.58
2023-04-23T02:27:39.506Z,96154.40
2023-04-23T02:30:09.959Z,96152.52
2023-04-23T02:32:39.182Z,96147.60
2023-04-23T02:35:09.610Z,96140.44
2023-04-23T02:37:38.271Z,96138.77
2023-04-23T02:40:08.245Z,96139.70
2023-04-23T02:42:36.602Z,96138.79
2023-04-23T02:45:05.493Z,96140.80
2023-04-23T02:47:33.775Z,96143.23
2023-04-23T02:50:06.005Z,96146.66
2023-04-23T02:52:34.734Z,96143.88
2023-04-23T02:55:04.231Z,96141.45
2023-04-23T02:57:32.710Z,96140.63
2023-04-23T03:00:01.216Z,96141.54
2023-04-23T03:02:35.740Z,96136.70
2023-04-23T03:05:06.858Z,96134.56
2023-04-23T03:07:35.357Z,96133.39
2023-04-23T03:10:03.929Z,96133.48
2023-04-23T03:12:32.648Z,96139.40
2023-04-23T03:15:02.015Z,96137.11
2023-04-23T03:17:31.503Z,96144.13
2023-04-23T03:20:00.206Z,96149.79
2023-04-23T03:22:28.561Z,96149.63
2023-04-23T03:24:57.579Z,96150.48
2023-04-23T03:27:26.053Z,96156.58
2023-04-23T03:29:54.626Z,96161.32
2023-04-23T03:32:23.349Z,96159.30
2023-04-23T03:34:51.796Z,96158.77
2023-04-23T03:37:21.001Z,96157.95
2023-04-23T03:39:49.276Z,96156.48
2023-04-23T03:42:17.733Z,96160.45
2023-04-23T03:44:46.258Z,96159.98
2023-04-23T03:47:14.657Z,96163.42
2023-04-23T03:49:42.992Z,96165.19
2023-04-23T03:52:11.380Z,96164.51
2023-04-23T03:54:40.504Z,96170.77
2023-04-23T03:57:13.498Z,96168.23
2023-04-23T03:59:57.533Z,96165.04
2023-04-23T04:02:26.075Z,96173.65
2023-04-23T04:04:55.459Z,96175.95
2023-04-23T04:07:27.197Z,96174.88
2023-04-23T04:09:57.493Z,96182.65
2023-04-23T04:12:27.437Z,96179.54
2023-04-23T04:14:55.806Z,96182.94
2023-04-23T04:17:24.240Z,96177.34
2023-04-23T04:19:52.668Z,96189.09
2023-04-23T04:22:21.022Z,96188.83
2023-04-23T04:24:52.307Z,96188.48
2023-04-23T04:27:22.079Z,96190.39
2023-04-23T04:29:51.956Z,96189.00
2023-04-23T04:32:20.452Z,96187.81
2023-04-23T04:34:50.260Z,96193.81
2023-04-23T04:37:19.028Z,96198.90
2023-04-23T04:39:47.321Z,96200.11
2023-04-23T04:42:16.117Z,96199.55
2023-04-23T04:44:44.545Z,96201.54
2023-04-23T04:47:13.714Z,96206.04
2023-04-23T04:49:42.143Z,96211.73
2023-04-23T04:52:10.707Z,96211.74
2023-04-23T04:54:39.059Z,96215.92
2023-04-23T04:57:07.437Z,96220.75
2023-04-23T04:59:36.150Z,96222.98
2023-04-23T05:02:04.748Z,96222.14
2023-04-23T05:04:33.251Z,96218.95
2023-04-23T05:07:01.553Z,96222.89
2023-04-23T05:09:29.816Z,96232.17
2023-04-23T05:11:58.316Z,96234.80
2023-04-23T05:14:26.926Z,96230.90
2023-04-23T05:16:55.749Z,96232.23
2023-04-23T05:19:24.317Z,96243.62
2023-04-23T05:21:52.660Z,96244.14
2023-04-23T05:24:20.897Z,96246.65
2023-04-23T05:26:49.237Z,96246.48
2023-04-23T05:29:19.594Z,96243.55
2023-04-23T05:31:47.994Z,96244.35
2023-04-23T05:34:16.332Z,96247.57
2023-04-23T05:36:44.628Z,96251.05
2023-04-23T05:39:12.939Z,96248.48
2023-04-23T05:41:41.308Z,96251.54
2023-04-23T05:44:09.634Z,96252.30
2023-04-23T05:46:38.927Z,96248.75
2023-04-23T05:49:07.276Z,96251.13
2023-04-23T05:51:35.747Z,96251.52
2023-04-23T05:54:04.174Z,96244.89
2023-04-23T05:56:32.462Z,96249.42
2023-04-23T05:59:00.833Z,96246.96
2023-04-23T06:01:29.189Z,96247.06
2023-04-23T06:03:58.555Z,96247.79
2023-04-23T06:06:28.237Z,96242.52
2023-04-23T06:08:57.013Z,96251.66
2023-04-23T06:11:25.582Z,96248.00
2023-04-23T06:13:53.849Z,96247.48
2023-04-23T06:16:22.200Z,96246.01
2023-04-23T06:18:51.294Z,96244.70
2023-04-23T06:21:19.842Z,96244.84
2023-04-23T06:23:48.372Z,96240.06
2023-04-23T06:26:17.055Z,96239.77
2023-04-23T06:28:46.680Z,96235.23
2023-04-23T06:31:38.095Z,96232.49
2023-04-23T06:34:06.459Z,96229.64
2023-04-23T06:36:35.483Z,96228.73
2023-04-23T06:39:03.950Z,96230.23
2023-04-23T06:41:32.347Z,96231.77
2023-04-23T06:44:23.853Z,96228.67
2023-04-23T06:46:55.165Z,96231.09
2023-04-23T06:49:23.556Z,96230.14
2023-04-23T06:51:51.858Z,96232.45
2023-04-23T06:54:20.312Z,96232.74
2023-04-23T06:56:48.658Z,96234.45
2023-04-23T06:59:16.960Z,96236.71
2023-04-23T07:01:47.709Z,96235.58
2023-04-23T07:04:16.102Z,96231.10
2023-04-23T07:06:44.487Z,96231.86
2023-04-23T07:09:13.196Z,96230.56
2023-04-23T07:11:41.671Z,96228.14
2023-04-23T07:14:10.167Z,96227.58
2023-04-23T07:16:38.521Z,96231.53
2023-04-23T07:19:07.003Z,96230.34
2023-04-23T07:21:36.158Z,96232.43
2023-04-23T07:24:07.336Z,96230.99
2023-04-23T07:26:36.580Z,96229.31
2023-04-23T07:29:08.061Z,96227.41
2023-04-23T07:31:37.401Z,96228.08
2023-04-23T07:34:06.045Z,96228.06
2023-04-23T07:36:34.375Z,96235.27
2023-04-23T07:39:02.684Z,96231.06
2023-04-23T07:41:31.607Z,96235.21
2023-04-23T07:44:00.313Z,96233.61
2023-04-23T07:46:29.044Z,96234.04
2023-04-23T07:48:57.472Z,96238.90
2023-04-23T07:51:27.113Z,96242.23
2023-04-23T07:53:56.664Z,96240.39
2023-04-23T07:56:25.198Z,96237.14
2023-04-23T07:58:54.330Z,96237.86
2023-04-23T08:01:23.203Z,96239.57
2023-04-23T08:03:51.758Z,96241.17
2023-04-23T08:06:20.348Z,96242.21
2023-04-23T08:08:48.696Z,96244.60
2023-04-23T08:11:17.213Z,96248.50
2023-04-23T08:13:45.547Z,96247.70
2023-04-23T08:16:14.146Z,96248.41
2023-04-23T08:18:44.236Z,96251.80
2023-04-23T08:21:19.976Z,96250.80
2023-04-23T08:23:48.284Z,96250.82
2023-04-23T08:26:16.705Z,96247.66
2023-04-23T08:28:46.785Z,96245.64
2023-04-23T08:31:25.817Z,96243.73
2023-04-23T08:33:56.547Z,96241.63
2023-04-23T08:36:25.687Z,96241.73
2023-04-23T08:38:54.044Z,96236.95
2023-04-23T08:41:27.648Z,96233.64
2023-04-23T08:44:11.457Z,96232.75
2023-04-23T08:46:43.589Z,96230.30
2023-04-23T08:49:17.041Z,96225.87
2023-04-23T08:51:54.950Z,96229.75
2023-04-23T08:54:27.658Z,96230.45
2023-04-23T08:57:00.340Z,96226.77
2023-04-23T08:59:32.269Z,96222.69
2023-04-23T09:02:01.930Z,96221.95
2023-04-23T09:04:31.856Z,96216.65
2023-04-23T09:07:01.197Z,96213.14
2023-04-23T09:09:31.193Z,96213.27
2023-04-23T09:11:59.485Z,96207.37
2023-04-23T09:14:27.792Z,96206.59
2023-04-23T09:16:56.377Z,96206.14
2023-04-23T09:19:30.889Z,96204.95
2023-04-23T09:22:02.931Z,96201.93
2023-04-23T09:24:31.843Z,96198.34
2023-04-23T09:27:00.371Z,96199.21
2023-04-23T09:29:31.234Z,96199.38
2023-04-23T09:32:10.513Z,96200.07
2023-04-23T09:34:39.947Z,96199.81
2023-04-23T09:37:10.274Z,96197.17
2023-04-23T09:39:39.910Z,96197.23
2023-04-23T09:42:11.401Z,96194.85
2023-04-23T09:44:39.700Z,96192.36
2023-04-23T09:47:14.982Z,96192.33
2023-04-23T09:49:50.959Z,96191.74
2023-04-23T09:52:19.583Z,96191.48
2023-04-23T09:54:48.089Z,96188.42
2023-04-23T09:57:16.532Z,96183.80
2023-04-23T09:59:47.771Z,96181.84
2023-04-23T10:02:19.265Z,96179.11
2023-04-23T10:05:00.711Z,96179.95
2023-04-23T10:07:35.679Z,96173.63
2023-04-23T10:10:04.346Z,96171.38
2023-04-23T10:12:50.239Z,96170.71
2023-04-23T10:15:23.484Z,96166.19
2023-04-23T10:17:52.891Z,96160.42
2023-04-23T10:20:23.458Z,96159.55
2023-04-23T10:22:54.934Z,96157.77
2023-04-23T10:25:24.712Z,96155.16
2023-04-23T10:27:56.519Z,96153.59
2023-04-23T10:30:25.674Z,96149.41
2023-04-23T10:32:55.538Z,96138.73
2023-04-23T10:35:23.981Z,96144.79
2023-04-23T10:37:52.575Z,96144.08
2023-04-23T10:40:30.054Z,96140.84
2023-04-23T10:43:00.112Z,96134.05
2023-04-23T10:45:31.963Z,96137.48
2023-04-23T10:48:00.461Z,96131.90
2023-04-23T10:50:35.173Z,96130.15
2023-04-23T10:53:04.354Z,96122.77
2023-04-23T10:55:33.296Z,96124.59
2023-04-23T10:58:07.853Z,96116.89
2023-04-23T11:00:46.084Z,96112.31
2023-04-23T11:03:38.704Z,96113.88
2023-04-23T11:06:15.750Z,96110.71
2023-04-23T11:08:54.845Z,96109.64
2023-04-23T11:11:41.483Z,96108.11
2023-04-23T11:14:16.235Z,96108.75
2023-04-23T11:16:44.867Z,96112.61
2023-04-23T11:19:13.508Z,96107.69
2023-04-23T11:22:16.978Z,96101.77
2023-04-23T11:24:49.513Z,96104.80
2023-04-23T11:27:19.973Z,96111.20
2023-04-23T11:29:48.421Z,96108.73
2023-04-23T11:32:17.445Z,96108.41
2023-04-23T11:34:50.551Z,96107.82
2023-04-23T11:37:19.260Z,96111.54
2023-04-23T11:39:47.774Z,96113.55
2023-04-23T11:42:20.420Z,96116.67
2023-04-23T11:44:49.003Z,96111.54
2023-04-23T11:47:18.929Z,96116.68
2023-04-23T11:49:48.562Z,96116.27
2023-04-23T11:52:17.036Z,96114.88
2023-04-23T11:54:45.469Z,96118.23
2023-04-23T11:57:14.791Z,96122.72
2023-04-23T11:59:43.706Z,96128.86
2023-04-23T12:02:12.709Z,96127.64
2023-04-23T12:04:41.447Z,96125.54
2023-04-23T12:07:19.544Z,96120.05
2023-04-23T12:10:00.337Z,96119.02
2023-04-23T12:12:35.747Z,96117.64
2023-04-23T12:15:08.852Z,96115.27
2023-04-23T12:17:37.189Z,96112.42
2023-04-23T12:20:07.355Z,96104.56
2023-04-23T12:22:36.053Z,96104.23
2023-04-23T12:25:08.628Z,96103.00
2023-04-23T12:27:42.686Z,96097.13
2023-04-23T12:30:12.190Z,96090.96
2023-04-23T12:32:41.944Z,96091.85
2023-04-23T12:35:11.591Z,96091.56
2023-04-23T12:37:39.867Z,96090.14
2023-04-23T12:40:08.997Z,96086.67
2023-04-23T12:42:37.479Z,96082.73
2023-04-23T12:45:07.895Z,96080.33
2023-04-23T12:47:36.246Z,96078.88
2023-04-23T12:50:05.914Z,96072.39
2023-04-23T12:52:34.337Z,96068.66
2023-04-23T12:55:05.303Z,96061.07
2023-04-23T12:57:33.876Z,96058.36
2023-04-23T13:00:02.592Z,96052.36
2023-04-23T13:02:31.815Z,96048.98
2023-04-23T13:05:01.437Z,96046.46
2023-04-23T13:07:30.151Z,96037.98
2023-04-23T13:09:59.785Z,96031.35
2023-04-23T13:12:28.256Z,96034.89
2023-04-23T13:14:56.916Z,96028.62
2023-04-23T13:17:26.781Z,96026.81
2023-04-23T13:19:56.165Z,96023.02
2023-04-23T13:22:28.666Z,96021.71
2023-04-23T13:24:57.625Z,96027.73
2023-04-23T13:27:27.449Z,96020.86
2023-04-23T13:29:56.826Z,96023.39
2023-04-23T13:32:27.563Z,96021.16
2023-04-23T13:34:56.778Z,96020.32
2023-04-23T13:37:26.647Z,96017.57
2023-04-23T13:39:56.334Z,96018.56
2023-04-23T13:42:31.144Z,96021.39
2023-04-23T13:45:05.908Z,96019.04
2023-04-23T13:47:37.008Z,96022.19
2023-04-23T13:50:13.231Z,96014.57
2023-04-23T13:53:08.061Z,96012.45
2023-04-23T13:55:43.318Z,96008.90
2023-04-23T13:58:12.395Z,96004.45
2023-04-23T14:00:43.284Z,96001.66
2023-04-23T14:03:11.737Z,95999.52
2023-04-23T14:05:40.172Z,96002.34
2023-04-23T14:08:08.556Z,96004.20
2023-04-23T14:10:36.977Z,95995.40
2023-04-23T14:13:05.486Z,96001.41
2023-04-23T14:15:35.622Z,96000.02
2023-04-23T14:18:04.180Z,95994.20
2023-04-23T14:20:37.427Z,95996.27
2023-04-23T14:23:25.540Z,95998.15
2023-04-23T14:25:59.030Z,95999.46
2023-04-23T14:28:27.246Z,95996.44
2023-04-23T14:30:56.964Z,95994.54
2023-04-23T14:33:25.317Z,95989.11
2023-04-23T14:35:53.758Z,95989.14
2023-04-23T14:38:22.165Z,95991.15
2023-04-23T14:40:50.854Z,95990.09
2023-04-23T14:43:32.909Z,95989.91
2023-04-23T14:46:02.768Z,95989.55
2023-04-23T14:48:33.959Z,95990.63
2023-04-23T14:51:02.615Z,95989.36
2023-04-23T14:53:35.405Z,95989.93
2023-04-23T14:56:05.125Z,95987.14
2023-04-23T14:58:34.459Z,95987.73
2023-04-23T15:01:13.764Z,95988.05
2023-04-23T15:04:00.486Z,95990.42
2023-04-23T15:06:54.650Z,95988.55
2023-04-23T15:09:27.536Z,95988.94
2023-04-23T15:12:40.029Z,95989.29
2023-04-23T15:15:49.131Z,95990.99
2023-04-23T15:18:19.809Z,95987.15
2023-04-23T15:20:48.545Z,95990.61
2023-04-23T15:23:19.546Z,95987.77
2023-04-23T15:25:49.757Z,95985.02
2023-04-23T15:28:18.531Z,95979.60
2023-04-23T15:30:47.857Z,95980.41
2023-04-23T15:33:17.920Z,95978.54
2023-04-23T15:35:46.181Z,95975.75
2023-04-23T15:38:14.764Z,95972.77
2023-04-23T15:40:43.202Z,95971.09
2023-04-23T15:43:13.593Z,95968.21
2023-04-23T15:45:48.637Z,95969.59
2023-04-23T15:48:17.177Z,95968.00
2023-04-23T15:50:46.321Z,95964.85
2023-04-23T15:53:14.695Z,95962.30
2023-04-23T15:55:42.933Z,95962.29
2023-04-23T15:58:11.266Z,95967.13
2023-04-23T16:00:40.208Z,95966.55
2023-04-23T16:03:09.305Z,95970.77
2023-04-23T16:05:37.837Z,95972.77
2023-04-23T16:08:06.450Z,95980.14
2023-04-23T16:10:35.113Z,95975.20
2023-04-23T16:13:03.558Z,95978.36
2023-04-23T16:15:32.227Z,95976.29
2023-04-23T16:18:01.094Z,95974.91
2023-04-23T16:20:29.650Z,95974.25
2023-04-23T16:22:58.035Z,95974.36
2023-04-23T16:25:26.422Z,95972.44
2023-04-23T16:27:54.934Z,95970.76
2023-04-23T16:30:24.056Z,95972.83
2023-04-23T16:32:52.612Z,95970.80
2023-04-23T16:35:20.982Z,95967.62
2023-04-23T16:37:49.354Z,95968.55
2023-04-23T16:40:19.342Z,95972.23
2023-04-23T16:42:48.945Z,95975.14
2023-04-23T16:45:20.037Z,95971.96
2023-04-23T16:47:49.238Z,95973.05
2023-04-23T16:50:17.615Z,95973.65
2023-04-23T16:52:46.151Z,95968.82
2023-04-23T16:55:15.247Z,95969.02
2023-04-23T16:57:43.600Z,95970.47
2023-04-23T17:00:13.039Z,95963.54
2023-04-23T17:02:42.164Z,95960.68
2023-04-23T17:05:10.837Z,95961.71
2023-04-23T17:07:41.024Z,95961.61
2023-04-23T17:10:10.024Z,95961.87
2023-04-23T17:12:38.469Z,95957.84
2023-04-23T17:15:07.758Z,95962.48
2023-04-23T17:17:36.814Z,95961.58
2023-04-23T17:20:09.170Z,95963.07
2023-04-23T17:22:37.633Z,95962.23
2023-04-23T17:25:07.062Z,95962.96
2023-04-23T17:27:35.439Z,95964.98
2023-04-23T17:30:04.811Z,95966.33
2023-04-23T17:32:33.667Z,95968.08
2023-04-23T17:35:10.075Z,95968.96
2023-04-23T17:37:39.479Z,95967.23
2023-04-23T17:40:09.888Z,95966.46
2023-04-23T17:42:38.355Z,95967.75
2023-04-23T17:45:07.400Z,95970.90
2023-04-23T17:47:36.631Z,95971.97
2023-04-23T17:50:06.482Z,95972.44
2023-04-23T17:52:34.802Z,95974.05
2023-04-23T17:55:03.622Z,95977.36
2023-04-23T17:57:32.162Z,95977.27
2023-04-23T18:00:05.050Z,95979.30
2023-04-23T18:02:40.785Z,95981.32
2023-04-23T18:05:11.245Z,95981.74
2023-04-23T18:07:41.013Z,95985.53
2023-04-23T18:10:10.640Z,95987.23
2023-04-23T18:12:39.712Z,95997.55
2023-04-23T18:15:11.341Z,96006.91
2023-04-23T18:17:40.202Z,96005.33
2023-04-23T18:20:10.072Z,96005.41
2023-04-23T18:22:39.310Z,96008.94
2023-04-23T18:25:12.791Z,96005.02
2023-04-23T18:27:41.836Z,96001.75
2023-04-23T18:30:12.109Z,96002.00
2023-04-23T18:32:48.425Z,96001.84
2023-04-23T18:35:16.959Z,96004.35
2023-04-23T18:37:54.163Z,96001.73
2023-04-23T18:40:23.096Z,96006.61
2023-04-23T18:42:51.773Z,96008.82
2023-04-23T18:45:20.238Z,96010.64
2023-04-23T18:48:00.972Z,96009.90
2023-04-23T18:50:50.195Z,96008.88
2023-04-23T18:53:20.331Z,96004.70
2023-04-23T18:55:50.120Z,96006.02
2023-04-23T18:58:18.425Z,96008.72
2023-04-23T19:00:47.089Z,96008.42
2023-04-23T19:03:25.361Z,96004.98
2023-04-23T19:05:55.778Z,96002.09
2023-04-23T19:08:33.289Z,96005.13
2023-04-23T19:11:01.705Z,96005.13
2023-04-23T19:13:30.178Z,96007.34
2023-04-23T19:15:58.677Z,96004.61
2023-04-23T19:18:27.787Z,96006.61
2023-04-23T19:20:56.438Z,96008.23
2023-04-23T19:23:24.909Z,96008.60
2023-04-23T19:25:53.763Z,96007.02
2023-04-23T19:28:22.117Z,96005.21
2023-04-23T19:30:51.894Z,96003.67
2023-04-23T19:33:20.223Z,96006.15
2023-04-23T19:35:48.577Z,96009.70
2023-04-23T19:38:16.989Z,96012.14
2023-04-23T19:40:45.389Z,96011.30
2023-04-23T19:43:14.069Z,96009.84
2023-04-23T19:45:42.344Z,96006.45
2023-04-23T19:48:10.753Z,96004.66
2023-04-23T19:50:39.350Z,96007.02
2023-04-23T19:53:07.951Z,96003.39
2023-04-23T19:55:36.546Z,95995.85
2023-04-23T19:58:07.609Z,95995.46
2023-04-23T20:00:52.837Z,95991.54
2023-04-23T20:03:22.196Z,95991.08
2023-04-23T20:05:52.622Z,95987.81
2023-04-23T20:08:26.407Z,95986.91
2023-04-23T20:10:56.289Z,95991.86
2023-04-23T20:13:25.114Z,95985.40
2023-04-23T20:15:53.938Z,95979.27
2023-04-23T20:18:22.453Z,95982.48
2023-04-23T20:20:50.765Z,95980.21
2023-04-23T20:23:19.072Z,95975.34
2023-04-23T20:25:48.253Z,95978.44
2023-04-23T20:28:17.070Z,95979.67
2023-04-23T20:30:45.348Z,95977.31
2023-04-23T20:33:14.368Z,95972.95
2023-04-23T20:35:43.585Z,95972.60
2023-04-23T20:38:13.223Z,95976.23
2023-04-23T20:40:41.580Z,95972.03
2023-04-23T20:43:10.413Z,95975.42
2023-04-23T20:45:40.464Z,95974.32
2023-04-23T20:48:10.189Z,95981.26
2023-04-23T20:50:38.580Z,95980.70
2023-04-23T20:53:06.903Z,95981.45
2023-04-23T20:55:35.241Z,95982.23
2023-04-23T20:58:03.748Z,95981.95
2023-04-23T21:00:32.941Z,95978.36
2023-04-23T21:03:01.408Z,95975.82
2023-04-23T21:05:30.118Z,95969.54
2023-04-23T21:07:58.460Z,95968.90
2023-04-23T21:10:26.906Z,95966.90
2023-04-23T21:12:55.301Z,95971.92
2023-04-23T21:15:23.658Z,95966.33
2023-04-23T21:17:52.029Z,95966.08
2023-04-23T21:20:21.048Z,95967.98
2023-04-23T21:22:49.401Z,95970.03
2023-04-23T21:25:18.232Z,95968.70
2023-04-23T21:27:48.734Z,95971.00
2023-04-23T21:30:37.044Z,95968.40
2023-04-23T21:33:05.560Z,95963.55
2023-04-23T21:35:34.100Z,95962.85
2023-04-23T21:38:02.420Z,95964.02
2023-04-23T21:40:31.245Z,95965.39
2023-04-23T21:42:59.880Z,95960.09
2023-04-23T21:45:28.751Z,95955.84
2023-04-23T21:47:57.222Z,95958.38
2023-04-23T21:50:31.057Z,95955.62
2023-04-23T21:53:00.673Z,95953.73
2023-04-23T21:55:31.639Z,95951.24
2023-04-23T21:58:15.757Z,95949.98
2023-04-23T22:00:46.423Z,95950.27
2023-04-23T22:03:15.560Z,95946.63
2023-04-23T22:05:56.669Z,95943.80
2023-04-23T22:08:25.204Z,95945.38
2023-04-23T22:10:53.583Z,95941.83
2023-04-23T22:13:21.847Z,95938.20
2023-04-23T22:15:50.210Z,95939.48
2023-04-23T22:18:18.526Z,95940.91
2023-04-23T22:20:50.982Z,95943.77
2023-04-23T22:23:19.934Z,95944.66
2023-04-23T22:25:48.479Z,95948.87
2023-04-23T22:28:17.188Z,95950.94
2023-04-23T22:30:45.582Z,95947.73
2023-04-23T22:33:13.883Z,95945.60
2023-04-23T22:35:42.226Z,95939.56
2023-04-23T22:38:10.674Z,95938.91
2023-04-23T22:40:39.192Z,95934.86
2023-04-23T22:43:07.446Z,95932.80
2023-04-23T22:45:35.850Z,95926.29
2023-04-23T22:48:04.445Z,95925.59
2023-04-23T22:50:32.950Z,95923.09
2023-04-23T22:53:01.423Z,95917.51
2023-04-23T22:55:29.717Z,95916.23
2023-04-23T22:57:58.195Z,95918.54
2023-04-23T23:00:26.646Z,95913.82
2023-04-23T23:02:55.103Z,95914.52
2023-04-23T23:05:23.615Z,95916.26
2023-04-23T23:07:51.991Z,95910.61
2023-04-23T23:10:22.766Z,95908.23
2023-04-23T23:12:51.471Z,95911.11
2023-04-23T23:15:19.929Z,95906.27
2023-04-23T23:17:48.290Z,95903.15
2023-04-23T23:20:16.950Z,95907.92
2023-04-23T23:22:45.438Z,95903.79
2023-04-23T23:25:13.778Z,95898.35
2023-04-23T23:27:42.110Z,95900.01
2023-04-23T23:30:10.720Z,95893.26
2023-04-23T23:32:39.238Z,95892.23
2023-04-23T23:35:08.369Z,95888.45
2023-04-23T23:37:36.878Z,95891.17
2023-04-23T23:40:06.053Z,95884.83
2023-04-23T23:42:34.417Z,95886.42
2023-04-23T23:45:03.055Z,95883.09
2023-04-23T23:47:31.920Z,95877.95
2023-04-23T23:50:00.261Z,95881.63
2023-04-23T23:52:28.562Z,95881.29
2023-04-23T23:54:56.889Z,95880.93
2023-04-23T23:57:25.313Z,95876.38
2023-04-23T23:59:53.569Z,95872.31
